createdAt,value
2018-07-25T00:01:49.405Z,18.40
2018-07-25T00:04:17.582Z,18.30
2018-07-25T00:06:45.725Z,18.20
2018-07-25T00:09:13.878Z,18.10
2018-07-25T00:11:42.051Z,18.00
2018-07-25T00:14:10.202Z,17.90
2018-07-25T00:16:38.380Z,17.80
2018-07-25T00:19:06.532Z,17.80
2018-07-25T00:21:34.704Z,17.80
2018-07-25T00:24:02.830Z,17.70
2018-07-25T00:26:30.974Z,17.70
2018-07-25T00:28:59.130Z,17.70
2018-07-25T00:31:27.262Z,17.70
2018-07-25T00:33:55.414Z,17.70
2018-07-25T00:36:23.635Z,17.70
2018-07-25T00:38:51.784Z,17.70
2018-07-25T00:41:19.955Z,17.70
2018-07-25T00:43:48.091Z,17.60
2018-07-25T00:46:16.250Z,17.40
2018-07-25T00:48:44.370Z,17.40
2018-07-25T00:51:12.511Z,17.30
2018-07-25T00:53:40.648Z,17.30
2018-07-25T00:56:08.965Z,17.30
2018-07-25T00:58:37.118Z,17.30
2018-07-25T01:01:05.344Z,17.30
2018-07-25T01:03:33.572Z,17.30
2018-07-25T01:06:01.721Z,17.30
2018-07-25T01:08:29.891Z,17.30
2018-07-25T01:10:58.038Z,17.30
2018-07-25T01:13:26.189Z,17.30
2018-07-25T01:15:54.357Z,17.30
2018-07-25T01:18:22.511Z,17.30
2018-07-25T01:20:50.666Z,17.30
2018-07-25T01:25:46.736Z,17.20
2018-07-25T01:28:14.881Z,17.20
2018-07-25T01:30:43.070Z,17.20
2018-07-25T01:33:11.220Z,17.20
2018-07-25T01:35:39.404Z,17.20
2018-07-25T01:38:07.560Z,17.20
2018-07-25T01:40:35.713Z,17.20
2018-07-25T01:43:03.952Z,17.20
2018-07-25T01:45:32.122Z,17.10
2018-07-25T01:48:00.286Z,17.20
2018-07-25T01:50:28.447Z,17.30
2018-07-25T01:52:56.605Z,17.40
2018-07-25T01:55:24.757Z,17.40
2018-07-25T01:57:52.977Z,17.40
2018-07-25T02:00:21.128Z,17.30
2018-07-25T02:02:49.266Z,17.10
2018-07-25T02:05:17.406Z,17.00
2018-07-25T02:07:45.564Z,16.90
2018-07-25T02:10:13.713Z,16.90
2018-07-25T02:12:41.862Z,16.90
2018-07-25T02:15:10.005Z,16.90
2018-07-25T02:17:38.149Z,16.90
2018-07-25T02:20:06.300Z,17.00
2018-07-25T02:22:34.455Z,16.90
2018-07-25T02:25:02.616Z,17.00
2018-07-25T02:27:30.764Z,16.90
2018-07-25T02:29:58.909Z,16.80
2018-07-25T02:32:27.069Z,16.70
2018-07-25T02:34:55.197Z,16.70
2018-07-25T02:37:23.349Z,16.70
2018-07-25T02:39:51.497Z,16.70
2018-07-25T02:42:19.727Z,16.70
2018-07-25T02:44:47.783Z,16.60
2018-07-25T02:47:15.924Z,16.50
2018-07-25T02:49:44.053Z,16.50
2018-07-25T02:52:12.197Z,16.40
2018-07-25T02:54:40.329Z,16.40
2018-07-25T02:57:08.460Z,16.50
2018-07-25T02:59:36.612Z,16.50
2018-07-25T03:02:04.749Z,16.50
2018-07-25T03:04:32.906Z,16.50
2018-07-25T03:07:01.033Z,16.50
2018-07-25T03:09:29.211Z,16.40
2018-07-25T03:11:57.356Z,16.50
2018-07-25T03:14:25.563Z,16.50
2018-07-25T03:16:53.670Z,16.40
2018-07-25T03:19:21.809Z,16.40
2018-07-25T03:21:49.958Z,16.30
2018-07-25T03:24:18.109Z,16.30
2018-07-25T03:26:46.256Z,16.30
2018-07-25T03:29:14.400Z,16.30
2018-07-25T03:31:42.550Z,16.30
2018-07-25T03:34:10.700Z,16.30
2018-07-25T03:36:38.849Z,16.20
2018-07-25T03:39:07.175Z,16.20
2018-07-25T03:41:35.321Z,16.30
2018-07-25T03:44:03.471Z,16.30
2018-07-25T03:46:31.613Z,16.30
2018-07-25T03:48:59.760Z,16.30
2018-07-25T03:51:27.905Z,16.30
2018-07-25T03:53:56.057Z,16.20
2018-07-25T03:56:24.186Z,16.30
2018-07-25T03:58:52.328Z,16.40
2018-07-25T04:01:20.505Z,16.50
2018-07-25T04:03:48.654Z,16.50
2018-07-25T04:06:16.807Z,16.60
2018-07-25T04:08:44.965Z,16.60
2018-07-25T04:11:13.110Z,16.70
2018-07-25T04:13:41.260Z,16.80
2018-07-25T04:16:09.437Z,16.80
2018-07-25T04:18:37.590Z,16.80
2018-07-25T04:21:05.762Z,16.90
2018-07-25T04:23:33.914Z,16.90
2018-07-25T04:26:02.089Z,16.80
2018-07-25T04:28:30.232Z,16.90
2018-07-25T04:30:58.390Z,16.90
2018-07-25T04:33:26.554Z,16.90
2018-07-25T04:35:54.713Z,17.00
2018-07-25T04:38:22.869Z,17.10
2018-07-25T04:40:51.033Z,17.10
2018-07-25T04:43:19.173Z,17.20
2018-07-25T04:45:47.346Z,17.30
2018-07-25T04:48:15.516Z,17.50
2018-07-25T04:50:44.071Z,17.40
2018-07-25T04:53:12.222Z,17.50
2018-07-25T04:55:40.404Z,17.50
2018-07-25T04:58:08.576Z,17.70
2018-07-25T05:00:36.736Z,17.70
2018-07-25T05:03:04.957Z,17.70
2018-07-25T05:05:33.121Z,17.80
2018-07-25T05:08:01.271Z,17.80
2018-07-25T05:10:29.445Z,17.90
2018-07-25T05:12:57.592Z,18.00
2018-07-25T05:15:25.778Z,18.10
2018-07-25T05:17:53.914Z,18.20
2018-07-25T05:20:22.061Z,18.30
2018-07-25T05:22:50.225Z,18.30
2018-07-25T05:25:18.426Z,18.40
2018-07-25T05:27:46.588Z,18.50
2018-07-25T05:30:14.823Z,19.10
2018-07-25T05:32:42.903Z,19.50
2018-07-25T05:35:11.040Z,19.70
2018-07-25T05:37:39.228Z,19.90
2018-07-25T05:40:07.439Z,20.30
2018-07-25T05:42:35.613Z,20.70
2018-07-25T05:45:04.476Z,21.10
2018-07-25T05:47:32.640Z,21.40
2018-07-25T05:50:00.797Z,21.70
2018-07-25T05:52:28.988Z,21.80
2018-07-25T05:54:57.173Z,22.10
2018-07-25T05:57:25.345Z,22.80
2018-07-25T05:59:53.503Z,23.20
2018-07-25T06:02:21.676Z,23.20
2018-07-25T06:04:49.855Z,23.50
2018-07-25T06:07:18.007Z,23.90
2018-07-25T06:09:46.162Z,24.50
2018-07-25T06:12:14.331Z,24.80
2018-07-25T06:14:42.504Z,24.80
2018-07-25T06:17:10.701Z,25.00
2018-07-25T06:19:38.848Z,25.80
2018-07-25T06:22:07.012Z,25.80
2018-07-25T06:24:35.160Z,26.80
2018-07-25T06:27:03.330Z,27.00
2018-07-25T06:29:31.480Z,27.20
2018-07-25T06:31:59.624Z,27.70
2018-07-25T06:36:55.732Z,27.70
2018-07-25T06:39:23.884Z,27.70
2018-07-25T06:41:52.043Z,27.80
2018-07-25T06:44:20.183Z,28.00
2018-07-25T06:46:48.345Z,28.00
2018-07-25T06:49:16.480Z,27.40
2018-07-25T06:51:44.668Z,27.30
2018-07-25T06:54:12.821Z,28.10
2018-07-25T06:56:40.972Z,29.10
2018-07-25T06:59:09.121Z,29.30
2018-07-25T07:01:37.274Z,29.10
2018-07-25T07:04:05.460Z,29.00
2018-07-25T07:06:33.629Z,28.90
2018-07-25T07:09:01.742Z,29.40
2018-07-25T07:11:29.884Z,29.40
2018-07-25T07:13:58.037Z,28.90
2018-07-25T07:16:26.176Z,29.80
2018-07-25T07:18:54.305Z,29.90
2018-07-25T07:21:22.506Z,29.90
2018-07-25T07:23:50.686Z,29.60
2018-07-25T07:26:18.820Z,29.00
2018-07-25T07:28:46.978Z,28.70
2018-07-25T07:31:15.139Z,28.90
2018-07-25T07:33:43.300Z,28.70
2018-07-25T07:36:11.517Z,29.00
2018-07-25T07:38:39.613Z,29.10
2018-07-25T07:41:07.777Z,29.60
2018-07-25T07:43:35.909Z,29.60
2018-07-25T07:46:04.050Z,29.90
2018-07-25T07:48:32.200Z,30.30
2018-07-25T07:51:00.336Z,30.30
2018-07-25T07:53:28.472Z,30.60
2018-07-25T07:55:56.630Z,30.20
2018-07-25T07:58:24.753Z,30.50
2018-07-25T08:00:52.904Z,30.50
2018-07-25T08:03:21.036Z,31.10
2018-07-25T08:05:49.176Z,31.40
2018-07-25T08:08:17.320Z,31.40
2018-07-25T08:10:45.508Z,31.50
2018-07-25T08:13:13.608Z,31.60
2018-07-25T08:15:41.761Z,31.30
2018-07-25T08:18:09.936Z,31.50
2018-07-25T08:20:38.159Z,31.60
2018-07-25T08:23:06.321Z,31.80
2018-07-25T08:25:34.566Z,31.70
2018-07-25T08:28:02.722Z,31.30
2018-07-25T08:30:30.892Z,31.30
2018-07-25T08:32:59.044Z,31.40
2018-07-25T08:35:27.208Z,30.90
2018-07-25T08:37:55.369Z,31.70
2018-07-25T08:40:23.604Z,30.90
2018-07-25T08:42:51.763Z,31.90
2018-07-25T08:45:19.922Z,31.30
2018-07-25T08:47:48.076Z,32.20
2018-07-25T08:50:16.229Z,32.20
2018-07-25T08:52:44.503Z,32.60
2018-07-25T08:55:12.593Z,33.20
2018-07-25T08:57:40.779Z,33.40
2018-07-25T09:00:08.924Z,33.80
2018-07-25T09:02:37.083Z,32.50
2018-07-25T09:05:05.218Z,33.10
2018-07-25T09:07:33.395Z,34.10
2018-07-25T09:10:01.488Z,31.50
2018-07-25T09:12:29.613Z,33.80
2018-07-25T09:14:57.764Z,34.10
2018-07-25T09:17:25.951Z,34.70
2018-07-25T09:19:54.148Z,35.30
2018-07-25T09:22:22.216Z,34.50
2018-07-25T09:24:50.396Z,34.50
2018-07-25T09:27:18.536Z,35.90
2018-07-25T09:29:46.683Z,36.40
2018-07-25T09:32:14.840Z,36.00
2018-07-25T09:34:42.989Z,35.90
2018-07-25T09:37:11.199Z,36.20
2018-07-25T09:39:39.340Z,35.90
2018-07-25T09:42:07.496Z,36.40
2018-07-25T09:44:35.645Z,36.70
2018-07-25T09:47:03.789Z,36.10
2018-07-25T09:49:31.937Z,35.00
2018-07-25T09:52:00.094Z,35.40
2018-07-25T09:54:28.237Z,35.00
2018-07-25T09:56:56.387Z,34.30
2018-07-25T09:59:24.505Z,36.10
2018-07-25T10:01:52.664Z,36.60
2018-07-25T10:04:20.777Z,36.10
2018-07-25T10:06:48.917Z,34.60
2018-07-25T10:09:17.103Z,35.10
2018-07-25T10:11:45.220Z,36.20
2018-07-25T10:14:13.373Z,36.80
2018-07-25T10:16:41.609Z,37.10
2018-07-25T10:19:09.750Z,36.70
2018-07-25T10:21:37.898Z,36.10
2018-07-25T10:24:06.073Z,37.50
2018-07-25T10:26:34.209Z,37.80
2018-07-25T10:29:02.328Z,37.20
2018-07-25T10:31:30.460Z,36.70
2018-07-25T10:33:58.625Z,36.70
2018-07-25T10:36:26.770Z,36.50
2018-07-25T10:38:54.945Z,36.50
2018-07-25T10:41:23.061Z,36.20
2018-07-25T10:43:51.225Z,36.00
2018-07-25T10:46:19.380Z,34.60
2018-07-25T10:48:47.563Z,36.80
2018-07-25T10:51:15.685Z,36.50
2018-07-25T10:53:43.817Z,37.20
2018-07-25T10:56:11.982Z,36.30
2018-07-25T10:58:40.123Z,36.60
2018-07-25T11:01:08.427Z,35.40
2018-07-25T11:03:36.551Z,35.90
2018-07-25T11:06:04.685Z,36.70
2018-07-25T11:08:32.818Z,37.10
2018-07-25T11:11:01.001Z,36.90
2018-07-25T11:13:29.137Z,38.00
2018-07-25T11:15:57.278Z,38.10
2018-07-25T11:18:25.405Z,37.50
2018-07-25T11:20:53.556Z,38.10
2018-07-25T11:23:21.670Z,38.50
2018-07-25T11:25:49.801Z,38.00
2018-07-25T11:28:17.916Z,36.40
2018-07-25T11:30:46.050Z,37.10
2018-07-25T11:33:14.177Z,37.60
2018-07-25T11:35:42.303Z,38.00
2018-07-25T11:38:10.443Z,38.00
2018-07-25T11:40:38.556Z,38.30
2018-07-25T11:43:06.685Z,37.30
2018-07-25T11:45:34.809Z,36.90
2018-07-25T11:48:02.954Z,37.30
2018-07-25T11:50:31.123Z,36.20
2018-07-25T11:52:59.193Z,35.70
2018-07-25T11:55:27.335Z,36.50
2018-07-25T12:00:23.405Z,37.20
2018-07-25T12:02:51.602Z,37.50
2018-07-25T12:05:19.779Z,37.60
2018-07-25T12:07:47.926Z,37.90
2018-07-25T12:10:16.048Z,38.10
2018-07-25T12:12:44.191Z,37.30
2018-07-25T12:15:12.317Z,37.40
2018-07-25T12:17:40.466Z,37.40
2018-07-25T12:20:08.686Z,36.40
2018-07-25T12:22:36.821Z,35.80
2018-07-25T12:25:05.777Z,36.60
2018-07-25T12:27:33.933Z,36.90
2018-07-25T12:30:02.085Z,37.80
2018-07-25T12:32:30.229Z,37.10
2018-07-25T12:34:58.370Z,37.30
2018-07-25T12:37:26.547Z,37.20
2018-07-25T12:39:57.909Z,36.60
2018-07-25T12:42:26.062Z,36.40
2018-07-25T12:44:54.209Z,37.20
2018-07-25T12:47:22.353Z,37.30
2018-07-25T12:49:50.771Z,36.80
2018-07-25T12:52:18.942Z,36.00
2018-07-25T12:54:47.110Z,36.90
2018-07-25T12:57:15.279Z,37.00
2018-07-25T12:59:43.589Z,37.30
2018-07-25T13:02:11.802Z,37.70
2018-07-25T13:04:39.932Z,37.60
2018-07-25T13:07:08.099Z,37.40
2018-07-25T13:09:36.261Z,36.50
2018-07-25T13:12:04.457Z,36.70
2018-07-25T13:14:32.593Z,35.90
2018-07-25T13:17:00.729Z,36.30
2018-07-25T13:19:28.889Z,36.80
2018-07-25T13:21:57.021Z,36.40
2018-07-25T13:24:25.156Z,36.30
2018-07-25T13:26:53.315Z,36.20
2018-07-25T13:29:21.469Z,36.50
2018-07-25T13:31:49.613Z,36.70
2018-07-25T13:34:17.777Z,37.00
2018-07-25T13:36:45.901Z,36.70
2018-07-25T13:39:14.033Z,37.00
2018-07-25T13:41:42.189Z,36.80
2018-07-25T13:44:10.336Z,35.90
2018-07-25T13:46:38.476Z,35.90
2018-07-25T13:49:06.636Z,35.90
2018-07-25T13:51:34.781Z,35.90
2018-07-25T13:54:02.916Z,35.90
2018-07-25T13:56:31.061Z,36.10
2018-07-25T13:58:59.241Z,35.80
2018-07-25T14:01:27.388Z,34.70
2018-07-25T14:03:55.646Z,34.10
2018-07-25T14:06:23.812Z,33.60
2018-07-25T14:08:51.969Z,33.50
2018-07-25T14:11:20.108Z,33.10
2018-07-25T14:13:48.237Z,32.90
2018-07-25T14:16:17.140Z,32.80
2018-07-25T14:18:45.265Z,33.40
2018-07-25T14:23:41.793Z,34.10
2018-07-25T14:26:09.919Z,34.30
2018-07-25T14:28:38.069Z,34.10
2018-07-25T14:31:06.167Z,34.30
2018-07-25T14:33:34.289Z,34.30
2018-07-25T14:36:02.425Z,34.40
2018-07-25T14:38:30.543Z,34.50
2018-07-25T14:40:58.737Z,34.30
2018-07-25T14:43:26.927Z,34.40
2018-07-25T14:45:55.018Z,34.30
2018-07-25T14:48:23.140Z,34.50
2018-07-25T14:53:24.901Z,34.10
2018-07-25T14:55:53.054Z,34.20
2018-07-25T14:58:21.194Z,34.30
2018-07-25T15:00:49.368Z,34.30
2018-07-25T15:03:17.601Z,34.30
2018-07-25T15:05:45.748Z,34.10
2018-07-25T15:08:13.943Z,34.20
2018-07-25T15:10:42.090Z,34.10
2018-07-25T15:13:10.249Z,34.00
2018-07-25T15:15:38.378Z,33.70
2018-07-25T15:18:06.564Z,34.00
2018-07-25T15:20:34.813Z,33.90
2018-07-25T15:23:02.968Z,34.00
2018-07-25T15:25:31.133Z,33.80
2018-07-25T15:27:59.270Z,33.90
2018-07-25T15:30:27.458Z,34.00
2018-07-25T15:32:55.679Z,34.00
2018-07-25T15:35:23.864Z,34.00
2018-07-25T15:37:52.011Z,33.60
2018-07-25T15:40:20.189Z,33.00
2018-07-25T15:42:48.348Z,33.00
2018-07-25T15:45:16.517Z,33.20
2018-07-25T15:47:44.705Z,33.10
2018-07-25T15:50:12.861Z,33.20
2018-07-25T15:52:41.005Z,33.20
2018-07-25T15:55:09.229Z,33.50
2018-07-25T15:57:37.394Z,33.50
2018-07-25T16:00:06.905Z,33.50
2018-07-25T16:02:35.065Z,33.50
2018-07-25T16:05:03.200Z,33.80
2018-07-25T16:07:31.317Z,33.50
2018-07-25T16:09:59.510Z,33.50
2018-07-25T16:12:27.585Z,32.70
2018-07-25T16:14:55.726Z,32.80
2018-07-25T16:17:23.860Z,32.80
2018-07-25T16:19:51.980Z,32.70
2018-07-25T16:22:20.108Z,32.70
2018-07-25T16:24:48.240Z,32.90
2018-07-25T16:27:16.381Z,33.00
2018-07-25T16:29:44.522Z,32.60
2018-07-25T16:32:12.642Z,32.80
2018-07-25T16:34:40.803Z,32.60
2018-07-25T16:37:08.953Z,32.70
2018-07-25T16:39:37.088Z,32.60
2018-07-25T16:42:05.230Z,32.30
2018-07-25T16:44:33.372Z,32.40
2018-07-25T16:47:01.505Z,32.40
2018-07-25T16:49:29.685Z,32.40
2018-07-25T16:51:57.838Z,32.30
2018-07-25T16:54:25.976Z,32.20
2018-07-25T16:56:54.159Z,32.20
2018-07-25T16:59:22.269Z,32.30
2018-07-25T17:01:50.414Z,32.40
2018-07-25T17:04:18.550Z,32.30
2018-07-25T17:06:46.673Z,32.20
2018-07-25T17:09:14.855Z,32.30
2018-07-25T17:11:42.985Z,31.80
2018-07-25T17:14:11.114Z,31.50
2018-07-25T17:16:39.995Z,31.40
2018-07-25T17:19:08.125Z,31.50
2018-07-25T17:21:36.261Z,31.40
2018-07-25T17:24:04.382Z,31.20
2018-07-25T17:26:32.517Z,31.10
2018-07-25T17:29:00.633Z,30.90
2018-07-25T17:33:56.688Z,30.60
2018-07-25T17:36:24.827Z,30.40
2018-07-25T17:38:52.961Z,29.90
2018-07-25T17:41:21.099Z,29.70
2018-07-25T17:43:49.240Z,29.60
2018-07-25T17:46:17.377Z,29.50
2018-07-25T17:48:45.514Z,29.50
2018-07-25T17:51:13.640Z,29.50
2018-07-25T17:53:41.797Z,29.50
2018-07-25T17:56:09.923Z,29.50
2018-07-25T17:58:38.061Z,29.40
2018-07-25T18:01:06.229Z,29.50
2018-07-25T18:03:34.438Z,29.40
2018-07-25T18:06:02.572Z,29.30
2018-07-25T18:08:31.510Z,29.20
2018-07-25T18:10:59.636Z,29.20
2018-07-25T18:13:33.309Z,29.30
2018-07-25T18:16:01.453Z,29.20
2018-07-25T18:18:29.640Z,29.10
2018-07-25T18:20:58.070Z,29.10
2018-07-25T18:23:26.157Z,28.90
2018-07-25T18:25:54.331Z,28.70
2018-07-25T18:28:22.506Z,28.60
2018-07-25T18:30:50.641Z,28.50
2018-07-25T18:33:18.790Z,28.30
2018-07-25T18:35:46.971Z,28.20
2018-07-25T18:38:15.078Z,28.00
2018-07-25T18:40:43.229Z,27.90
2018-07-25T18:43:11.397Z,27.70
2018-07-25T18:45:39.622Z,27.50
2018-07-25T18:48:07.788Z,27.50
2018-07-25T18:50:35.924Z,26.80
2018-07-25T18:53:04.250Z,26.60
2018-07-25T18:55:32.398Z,26.20
2018-07-25T18:58:00.541Z,26.10
2018-07-25T19:00:29.665Z,26.10
2018-07-25T19:02:57.808Z,25.80
2018-07-25T19:05:29.867Z,25.70
2018-07-25T19:07:58.408Z,25.80
2018-07-25T19:10:26.561Z,25.80
2018-07-25T19:12:55.131Z,25.80
2018-07-25T19:15:28.725Z,25.40
2018-07-25T19:17:56.840Z,25.20
2018-07-25T19:20:25.007Z,24.90
2018-07-25T19:22:53.265Z,24.80
2018-07-25T19:25:21.877Z,24.70
2018-07-25T19:27:50.189Z,24.60
2018-07-25T19:30:18.489Z,24.50
2018-07-25T19:32:46.601Z,24.10
2018-07-25T19:35:14.869Z,24.10
2018-07-25T19:37:43.038Z,24.10
2018-07-25T19:40:11.222Z,24.00
2018-07-25T19:42:39.306Z,23.90
2018-07-25T19:45:07.505Z,23.80
2018-07-25T19:47:35.646Z,23.90
2018-07-25T19:50:03.801Z,23.70
2018-07-25T19:52:31.927Z,23.80
2018-07-25T19:55:00.102Z,23.80
2018-07-25T19:57:28.220Z,23.70
2018-07-25T19:59:56.477Z,23.70
2018-07-25T20:02:24.714Z,23.60
2018-07-25T20:04:52.828Z,23.50
2018-07-25T20:07:21.020Z,23.30
2018-07-25T20:09:49.139Z,23.20
2018-07-25T20:12:17.549Z,23.10
2018-07-25T20:14:51.294Z,22.90
2018-07-25T20:17:19.841Z,22.80
2018-07-25T20:19:48.137Z,22.80
2018-07-25T20:22:16.197Z,22.80
2018-07-25T20:24:44.318Z,22.80
2018-07-25T20:27:12.607Z,22.70
2018-07-25T20:29:40.879Z,22.60
2018-07-25T20:32:09.075Z,22.50
2018-07-25T20:34:37.244Z,22.50
2018-07-25T20:37:05.656Z,22.50
2018-07-25T20:42:02.012Z,22.40
2018-07-25T20:44:30.234Z,22.20
2018-07-25T20:46:58.456Z,22.10
2018-07-25T20:49:26.670Z,21.90
2018-07-25T20:51:54.905Z,21.80
2018-07-25T20:54:23.114Z,21.80
2018-07-25T20:56:51.277Z,21.80
2018-07-25T20:59:19.491Z,21.80
2018-07-25T21:01:47.647Z,21.80
2018-07-25T21:04:16.333Z,21.60
2018-07-25T21:06:48.187Z,21.50
2018-07-25T21:09:16.324Z,21.60
2018-07-25T21:11:44.759Z,21.60
2018-07-25T21:14:12.973Z,21.60
2018-07-25T21:16:41.215Z,21.60
2018-07-25T21:19:09.506Z,21.60
2018-07-25T21:21:37.756Z,21.70
2018-07-25T21:24:06.276Z,21.50
2018-07-25T21:26:34.733Z,21.50
2018-07-25T21:29:02.979Z,21.40
2018-07-25T21:31:31.277Z,21.40
2018-07-25T21:33:59.414Z,21.40
2018-07-25T21:36:27.671Z,21.40
2018-07-25T21:38:55.930Z,21.30
2018-07-25T21:41:24.058Z,21.20
2018-07-25T21:43:52.208Z,21.20
2018-07-25T21:46:20.393Z,21.10
2018-07-25T21:48:48.632Z,21.00
2018-07-25T21:51:16.786Z,20.90
2018-07-25T21:53:44.950Z,20.90
2018-07-25T21:56:13.187Z,20.90
2018-07-25T21:58:41.295Z,20.80
2018-07-25T22:01:13.265Z,20.80
2018-07-25T22:03:41.571Z,20.90
2018-07-25T22:06:09.721Z,20.80
2018-07-25T22:08:37.866Z,20.70
2018-07-25T22:11:06.013Z,20.70
2018-07-25T22:13:34.140Z,20.60
2018-07-25T22:16:02.261Z,20.60
2018-07-25T22:18:30.438Z,20.60
2018-07-25T22:20:58.573Z,20.50
2018-07-25T22:23:26.725Z,20.40
2018-07-25T22:25:54.862Z,20.40
2018-07-25T22:28:23.049Z,20.40
2018-07-25T22:30:51.186Z,20.30
2018-07-25T22:33:19.360Z,20.30
2018-07-25T22:35:47.481Z,20.40
2018-07-25T22:38:15.641Z,20.60
2018-07-25T22:40:43.777Z,20.60
2018-07-25T22:43:11.958Z,20.50
2018-07-25T22:45:40.078Z,20.20
2018-07-25T22:48:08.321Z,20.10
2018-07-25T22:50:36.453Z,20.10
2018-07-25T22:53:04.593Z,20.10
2018-07-25T22:55:32.755Z,20.20
2018-07-25T22:58:00.888Z,20.30
2018-07-25T23:00:29.026Z,20.30
2018-07-25T23:02:57.158Z,20.10
2018-07-25T23:05:25.308Z,20.00
2018-07-25T23:07:53.443Z,20.00
2018-07-25T23:10:21.560Z,20.00
2018-07-25T23:12:49.702Z,20.00
2018-07-25T23:15:17.837Z,20.00
2018-07-25T23:17:45.989Z,20.10
2018-07-25T23:20:14.121Z,20.10
2018-07-25T23:22:50.975Z,20.00
2018-07-25T23:25:19.114Z,20.00
2018-07-25T23:27:47.274Z,20.00
2018-07-25T23:30:15.535Z,20.00
2018-07-25T23:32:43.662Z,19.90
2018-07-25T23:35:11.790Z,19.70
2018-07-25T23:37:39.950Z,19.70
2018-07-25T23:40:08.080Z,19.70
2018-07-25T23:42:36.248Z,19.70
2018-07-25T23:45:04.420Z,19.60
2018-07-25T23:47:32.558Z,19.60
2018-07-25T23:50:00.689Z,19.50
2018-07-25T23:52:28.912Z,19.40
2018-07-25T23:54:57.056Z,19.40
2018-07-25T23:57:25.217Z,19.20
2018-07-25T23:59:53.353Z,19.10
